createdAt,value
2018-01-20T00:00:56.407Z,12.13
2018-01-20T00:03:26.371Z,12.10
2018-01-20T00:05:56.639Z,9.90
2018-01-20T00:08:25.934Z,11.13
2018-01-20T00:11:06.812Z,9.63
2018-01-20T00:13:37.410Z,9.50
2018-01-20T00:16:07.000Z,12.47
2018-01-20T00:18:36.471Z,9.13
2018-01-20T00:21:06.432Z,8.47
2018-01-20T00:23:35.952Z,10.30
2018-01-20T00:26:11.269Z,8.27
2018-01-20T00:28:40.753Z,8.53
2018-01-20T00:31:10.227Z,9.33
2018-01-20T00:33:39.707Z,6.97
2018-01-20T00:36:09.946Z,6.07
2018-01-20T00:38:40.289Z,6.20
2018-01-20T00:41:10.617Z,5.77
2018-01-20T00:43:40.099Z,6.80
2018-01-20T00:46:09.392Z,8.43
2018-01-20T00:48:39.649Z,5.50
2018-01-20T00:51:09.171Z,5.70
2018-01-20T00:53:38.708Z,5.93
2018-01-20T00:56:08.386Z,6.40
2018-01-20T00:58:37.864Z,6.90
2018-01-20T01:01:07.548Z,6.27
2018-01-20T01:03:37.034Z,8.20
2018-01-20T01:06:06.552Z,8.87
2018-01-20T01:08:36.059Z,8.77
2018-01-20T01:11:06.100Z,13.43
2018-01-20T01:13:36.079Z,15.13
2018-01-20T01:16:05.855Z,13.90
2018-01-20T01:18:35.450Z,18.63
2018-01-20T01:21:04.987Z,16.73
2018-01-20T01:23:34.494Z,17.63
2018-01-20T01:26:03.979Z,16.27
2018-01-20T01:28:33.719Z,20.27
2018-01-20T01:31:03.224Z,25.70
2018-01-20T01:33:33.155Z,15.37
2018-01-20T01:36:02.666Z,20.03
2018-01-20T01:38:32.343Z,16.70
2018-01-20T01:41:01.847Z,20.63
2018-01-20T01:43:31.344Z,18.67
2018-01-20T01:46:01.599Z,20.27
2018-01-20T01:48:31.100Z,23.00
2018-01-20T01:51:00.607Z,23.17
2018-01-20T01:53:30.111Z,19.80
2018-01-20T01:55:59.608Z,23.57
2018-01-20T01:58:30.234Z,22.57
2018-01-20T02:00:59.402Z,25.17
2018-01-20T02:03:28.959Z,24.13
2018-01-20T02:05:58.827Z,25.80
2018-01-20T02:08:29.201Z,25.93
2018-01-20T02:10:58.679Z,32.93
2018-01-20T02:13:28.195Z,30.67
2018-01-20T02:15:57.679Z,30.43
2018-01-20T02:18:28.215Z,32.13
2018-01-20T02:20:57.706Z,28.93
2018-01-20T02:23:27.199Z,37.53
2018-01-20T02:25:57.470Z,29.87
2018-01-20T02:28:27.071Z,30.57
2018-01-20T02:30:57.342Z,30.70
2018-01-20T02:33:26.999Z,26.60
2018-01-20T02:35:57.948Z,29.70
2018-01-20T02:38:27.732Z,34.97
2018-01-20T02:40:57.528Z,36.97
2018-01-20T02:43:27.032Z,28.80
2018-01-20T02:45:56.253Z,34.70
2018-01-20T02:48:25.825Z,25.23
2018-01-20T02:50:55.314Z,21.80
2018-01-20T02:53:25.573Z,21.80
2018-01-20T02:55:55.830Z,23.33
2018-01-20T02:58:25.326Z,21.60
2018-01-20T03:00:55.307Z,22.40
2018-01-20T03:03:24.504Z,20.10
2018-01-20T03:05:54.824Z,18.83
2018-01-20T03:08:24.343Z,22.50
2018-01-20T03:10:53.899Z,21.93
2018-01-20T03:13:23.407Z,23.57
2018-01-20T03:15:52.928Z,30.17
2018-01-20T03:18:23.183Z,22.13
2018-01-20T03:20:52.402Z,20.20
2018-01-20T03:23:22.494Z,19.53
2018-01-20T03:25:52.917Z,20.10
2018-01-20T03:28:22.435Z,27.33
2018-01-20T03:30:51.928Z,26.43
2018-01-20T03:33:21.433Z,26.87
2018-01-20T03:35:50.935Z,27.23
2018-01-20T03:38:20.456Z,29.70
2018-01-20T03:40:49.955Z,27.33
2018-01-20T03:43:19.452Z,38.20
2018-01-20T03:45:48.953Z,30.77
2018-01-20T03:48:18.600Z,27.63
2018-01-20T03:50:48.105Z,30.83
2018-01-20T03:53:18.036Z,25.80
2018-01-20T03:55:47.751Z,22.00
2018-01-20T03:58:17.247Z,23.93
2018-01-20T04:00:46.739Z,26.53
2018-01-20T04:03:16.230Z,21.63
2018-01-20T04:05:45.716Z,24.70
2018-01-20T04:08:15.304Z,23.80
2018-01-20T04:10:44.516Z,29.63
2018-01-20T04:13:15.307Z,20.33
2018-01-20T04:15:45.574Z,19.97
2018-01-20T04:18:16.804Z,20.00
2018-01-20T04:20:46.301Z,17.80
2018-01-20T04:23:15.815Z,19.30
2018-01-20T04:25:45.339Z,20.63
2018-01-20T04:28:16.684Z,19.23
2018-01-20T04:30:46.952Z,21.67
2018-01-20T04:33:17.668Z,18.97
2018-01-20T04:35:47.158Z,20.67
2018-01-20T04:38:16.694Z,20.53
2018-01-20T04:40:46.844Z,25.40
2018-01-20T04:43:16.172Z,21.83
2018-01-20T04:45:46.655Z,24.00
2018-01-20T04:48:16.183Z,40.73
2018-01-20T04:50:45.696Z,24.63
2018-01-20T04:53:15.240Z,18.23
2018-01-20T04:55:46.310Z,27.83
2018-01-20T04:58:15.804Z,21.33
2018-01-20T05:00:45.314Z,26.70
2018-01-20T05:03:15.575Z,23.50
2018-01-20T05:05:45.124Z,21.47
2018-01-20T05:08:14.629Z,14.87
2018-01-20T05:10:47.926Z,24.63
2018-01-20T05:13:17.426Z,19.83
2018-01-20T05:15:46.579Z,23.63
2018-01-20T05:18:16.412Z,21.10
2018-01-20T05:20:46.862Z,21.23
2018-01-20T05:23:16.368Z,19.60
2018-01-20T05:25:45.872Z,21.47
2018-01-20T05:28:17.141Z,22.47
2018-01-20T05:30:47.388Z,22.17
2018-01-20T05:33:16.988Z,17.63
2018-01-20T05:35:46.476Z,20.17
2018-01-20T05:38:15.980Z,22.13
2018-01-20T05:40:46.807Z,25.67
2018-01-20T05:43:16.375Z,15.60
2018-01-20T05:45:46.633Z,24.30
2018-01-20T05:48:17.057Z,23.33
2018-01-20T05:50:47.333Z,21.50
2018-01-20T05:53:16.850Z,21.43
2018-01-20T05:55:46.393Z,21.07
2018-01-20T05:58:15.889Z,24.00
2018-01-20T06:00:45.379Z,23.67
2018-01-20T06:03:14.884Z,24.90
2018-01-20T06:05:45.196Z,19.17
2018-01-20T06:08:14.994Z,18.80
2018-01-20T06:10:44.628Z,19.63
2018-01-20T06:13:14.215Z,21.70
2018-01-20T06:15:44.498Z,23.80
2018-01-20T06:18:15.083Z,18.13
2018-01-20T06:20:44.646Z,22.53
2018-01-20T06:23:14.140Z,19.27
2018-01-20T06:25:44.403Z,17.53
2018-01-20T06:28:13.945Z,19.63
2018-01-20T06:30:43.498Z,19.73
2018-01-20T06:33:13.017Z,16.17
2018-01-20T06:35:42.525Z,17.20
2018-01-20T06:38:12.046Z,18.73
2018-01-20T06:40:42.300Z,19.97
2018-01-20T06:43:11.859Z,16.50
2018-01-20T06:45:41.372Z,23.50
2018-01-20T06:48:11.023Z,18.23
2018-01-20T06:50:41.155Z,23.17
2018-01-20T06:53:10.721Z,21.13
2018-01-20T06:55:40.213Z,19.03
2018-01-20T06:58:09.908Z,17.60
2018-01-20T07:00:40.694Z,19.17
2018-01-20T07:03:10.226Z,14.33
2018-01-20T07:05:39.732Z,19.20
2018-01-20T07:08:09.998Z,22.90
2018-01-20T07:10:39.530Z,15.40
2018-01-20T07:13:08.863Z,26.83
2018-01-20T07:15:38.359Z,20.90
2018-01-20T07:18:07.926Z,20.03
2018-01-20T07:20:37.707Z,19.03
2018-01-20T07:23:07.175Z,24.57
2018-01-20T07:25:36.740Z,19.63
2018-01-20T07:28:06.260Z,22.87
2018-01-20T07:30:35.740Z,28.70
2018-01-20T07:33:05.517Z,20.57
2018-01-20T07:35:35.006Z,21.37
2018-01-20T07:38:04.503Z,25.03
2018-01-20T07:40:34.167Z,26.00
2018-01-20T07:43:03.708Z,27.83
2018-01-20T07:45:33.332Z,25.03
2018-01-20T07:48:03.528Z,25.80
2018-01-20T07:50:33.046Z,24.50
2018-01-20T07:53:02.596Z,30.17
2018-01-20T07:55:32.774Z,28.53
2018-01-20T07:58:02.258Z,31.97
2018-01-20T08:00:31.756Z,26.63
2018-01-20T08:03:00.986Z,30.20
2018-01-20T08:05:31.276Z,27.10
2018-01-20T08:08:00.445Z,33.77
2018-01-20T08:10:30.769Z,28.63
2018-01-20T08:13:00.352Z,26.03
2018-01-20T08:15:30.412Z,31.00
2018-01-20T08:17:59.695Z,31.50
2018-01-20T08:20:29.345Z,25.60
2018-01-20T08:22:59.347Z,25.37
2018-01-20T08:25:28.858Z,29.73
2018-01-20T08:27:58.403Z,23.33
2018-01-20T08:30:27.901Z,25.03
2018-01-20T08:32:57.382Z,21.90
2018-01-20T08:35:26.939Z,23.37
2018-01-20T08:37:56.433Z,27.13
2018-01-20T08:40:26.763Z,22.40
2018-01-20T08:42:56.274Z,24.53
2018-01-20T08:45:25.915Z,22.13
2018-01-20T08:47:55.596Z,21.37
2018-01-20T08:50:27.252Z,25.43
2018-01-20T08:52:58.626Z,23.23
2018-01-20T08:55:28.940Z,20.73
2018-01-20T08:57:58.443Z,23.53
2018-01-20T09:00:28.648Z,24.03
2018-01-20T09:02:58.160Z,22.57
2018-01-20T09:05:27.665Z,19.37
2018-01-20T09:07:57.652Z,23.73
2018-01-20T09:10:27.592Z,29.60
2018-01-20T09:12:57.095Z,16.07
2018-01-20T09:15:26.683Z,20.63
2018-01-20T09:17:56.970Z,24.13
2018-01-20T09:20:26.490Z,23.43
2018-01-20T09:22:56.686Z,17.63
2018-01-20T09:25:26.264Z,19.07
2018-01-20T09:27:55.807Z,24.30
2018-01-20T09:30:25.349Z,22.80
2018-01-20T09:32:56.783Z,22.20
2018-01-20T09:35:26.441Z,20.70
2018-01-20T09:37:55.942Z,23.93
2018-01-20T09:40:25.971Z,24.00
2018-01-20T09:42:57.127Z,22.67
2018-01-20T09:45:26.694Z,19.90
2018-01-20T09:47:56.249Z,17.53
2018-01-20T09:50:26.289Z,22.33
2018-01-20T09:52:56.247Z,21.93
2018-01-20T09:55:26.836Z,28.30
2018-01-20T09:57:56.401Z,21.60
2018-01-20T10:00:26.100Z,22.17
2018-01-20T10:02:56.094Z,22.50
2018-01-20T10:05:25.639Z,21.40
2018-01-20T10:07:55.182Z,18.83
2018-01-20T10:10:25.599Z,23.30
2018-01-20T10:12:56.702Z,20.33
2018-01-20T10:15:27.184Z,19.90
2018-01-20T10:17:57.157Z,20.60
2018-01-20T10:20:26.676Z,25.97
2018-01-20T10:22:56.936Z,20.67
2018-01-20T10:25:26.924Z,19.47
2018-01-20T10:27:56.856Z,19.07
2018-01-20T10:30:26.452Z,22.10
2018-01-20T10:32:56.086Z,17.13
2018-01-20T10:35:25.649Z,19.43
2018-01-20T10:37:57.137Z,19.30
2018-01-20T10:40:26.740Z,16.17
2018-01-20T10:42:56.307Z,13.60
2018-01-20T10:45:26.292Z,19.43
2018-01-20T10:47:56.924Z,17.40
2018-01-20T10:50:26.510Z,17.23
2018-01-20T10:52:56.077Z,16.63
2018-01-20T10:55:25.633Z,20.73
2018-01-20T10:57:56.559Z,12.37
2018-01-20T11:00:26.073Z,17.53
2018-01-20T11:02:55.287Z,12.13
2018-01-20T11:05:26.050Z,13.27
2018-01-20T11:07:55.648Z,14.90
2018-01-20T11:10:25.619Z,17.53
2018-01-20T11:12:54.799Z,16.10
2018-01-20T11:15:24.328Z,11.77
2018-01-20T11:17:54.236Z,14.13
2018-01-20T11:20:24.508Z,18.87
2018-01-20T11:22:54.769Z,13.17
2018-01-20T11:25:24.280Z,13.10
2018-01-20T11:27:54.536Z,12.70
2018-01-20T11:30:24.061Z,12.97
2018-01-20T11:32:53.569Z,13.27
2018-01-20T11:35:23.833Z,15.27
2018-01-20T11:37:53.420Z,13.90
2018-01-20T11:40:22.920Z,12.53
2018-01-20T11:42:52.429Z,17.00
2018-01-20T11:45:22.023Z,14.90
2018-01-20T11:47:51.394Z,13.57
2018-01-20T11:50:21.005Z,16.97
2018-01-20T11:52:50.493Z,13.77
2018-01-20T11:55:20.004Z,14.20
2018-01-20T11:57:49.692Z,13.80
2018-01-20T12:00:19.293Z,13.37
2018-01-20T12:02:48.625Z,13.70
2018-01-20T12:05:18.446Z,15.27
2018-01-20T12:07:47.961Z,14.53
2018-01-20T12:10:17.853Z,13.47
2018-01-20T12:12:48.132Z,16.63
2018-01-20T12:15:17.702Z,16.90
2018-01-20T12:17:47.217Z,15.97
2018-01-20T12:20:16.515Z,15.73
2018-01-20T12:22:46.328Z,13.13
2018-01-20T12:25:17.586Z,13.40
2018-01-20T12:27:47.234Z,13.67
2018-01-20T12:30:16.676Z,16.23
2018-01-20T12:32:46.755Z,15.83
2018-01-20T12:35:16.075Z,11.87
2018-01-20T12:37:47.250Z,15.80
2018-01-20T12:40:16.561Z,17.30
2018-01-20T12:42:45.860Z,14.13
2018-01-20T12:45:16.582Z,16.13
2018-01-20T12:47:45.965Z,14.07
2018-01-20T12:50:17.867Z,12.63
2018-01-20T12:52:48.130Z,12.70
2018-01-20T12:55:17.656Z,13.10
2018-01-20T12:57:47.405Z,14.53
2018-01-20T13:00:16.932Z,13.03
2018-01-20T13:02:47.427Z,12.90
2018-01-20T13:05:16.949Z,15.97
2018-01-20T13:07:47.189Z,11.43
2018-01-20T13:10:16.693Z,12.27
2018-01-20T13:12:46.570Z,10.23
2018-01-20T13:15:17.053Z,11.77
2018-01-20T13:17:47.404Z,10.67
2018-01-20T13:20:17.119Z,11.03
2018-01-20T13:22:46.762Z,12.23
2018-01-20T13:25:16.269Z,13.27
2018-01-20T13:27:45.767Z,13.57
2018-01-20T13:30:16.599Z,16.60
2018-01-20T13:32:46.112Z,13.50
2018-01-20T13:35:19.351Z,13.37
2018-01-20T13:37:50.455Z,12.03
2018-01-20T13:40:21.187Z,11.83
2018-01-20T13:42:50.673Z,11.33
2018-01-20T13:45:20.875Z,11.27
2018-01-20T13:47:51.648Z,10.50
2018-01-20T13:50:21.149Z,11.63
2018-01-20T13:52:50.911Z,10.93
2018-01-20T13:55:20.662Z,13.53
2018-01-20T13:57:50.536Z,15.43
2018-01-20T14:00:21.476Z,12.53
2018-01-20T14:02:51.005Z,11.90
2018-01-20T14:05:21.328Z,10.90
2018-01-20T14:07:52.761Z,10.63
2018-01-20T14:10:22.305Z,11.67
2018-01-20T14:12:51.812Z,10.37
2018-01-20T14:15:21.315Z,12.37
2018-01-20T14:17:50.898Z,11.43
2018-01-20T14:20:20.701Z,11.60
2018-01-20T14:22:50.223Z,11.33
2018-01-20T14:25:19.785Z,10.40
2018-01-20T14:27:49.682Z,9.93
2018-01-20T14:30:19.154Z,9.50
2018-01-20T14:32:48.754Z,11.07
2018-01-20T14:35:18.396Z,9.60
2018-01-20T14:37:47.901Z,10.63
2018-01-20T14:40:17.440Z,12.30
2018-01-20T14:42:47.013Z,9.07
2018-01-20T14:45:16.985Z,10.53
2018-01-20T14:47:47.239Z,9.73
2018-01-20T14:50:17.604Z,10.13
2018-01-20T14:52:47.141Z,11.10
2018-01-20T14:55:16.688Z,11.23
2018-01-20T14:57:46.549Z,10.60
2018-01-20T15:00:18.283Z,11.77
2018-01-20T15:02:49.488Z,11.00
2018-01-20T15:05:18.888Z,11.33
2018-01-20T15:07:48.503Z,12.50
2018-01-20T15:10:18.010Z,13.47
2018-01-20T15:12:48.273Z,12.17
2018-01-20T15:15:18.795Z,13.13
2018-01-20T15:17:49.134Z,15.63
2018-01-20T15:20:18.721Z,14.20
2018-01-20T15:22:48.226Z,12.20
2018-01-20T15:25:17.897Z,13.80
2018-01-20T15:27:47.401Z,11.63
2018-01-20T15:30:16.908Z,12.60
2018-01-20T15:32:47.230Z,12.93
2018-01-20T15:35:16.743Z,12.13
2018-01-20T15:37:46.245Z,12.07
2018-01-20T15:40:16.159Z,13.63
2018-01-20T15:42:45.716Z,11.17
2018-01-20T15:45:15.337Z,9.70
2018-01-20T15:47:45.586Z,9.67
2018-01-20T15:50:15.105Z,12.67
2018-01-20T15:52:45.363Z,11.90
2018-01-20T15:55:14.965Z,11.13
2018-01-20T15:57:44.471Z,12.40
2018-01-20T16:00:14.909Z,11.50
2018-01-20T16:02:44.419Z,12.67
2018-01-20T16:05:13.990Z,11.37
2018-01-20T16:07:43.021Z,10.90
2018-01-20T16:10:12.359Z,12.13
2018-01-20T16:12:42.285Z,12.40
2018-01-20T16:15:11.792Z,13.17
2018-01-20T16:17:41.402Z,11.63
2018-01-20T16:20:10.898Z,9.70
2018-01-20T16:22:40.563Z,12.57
2018-01-20T16:25:10.057Z,11.53
2018-01-20T16:27:39.615Z,11.10
2018-01-20T16:30:09.115Z,11.97
2018-01-20T16:32:39.387Z,12.43
2018-01-20T16:35:09.390Z,12.93
2018-01-20T16:37:38.975Z,13.63
2018-01-20T16:40:08.598Z,12.13
2018-01-20T16:42:38.166Z,12.87
2018-01-20T16:45:07.776Z,12.80
2018-01-20T16:47:37.334Z,14.40
2018-01-20T16:50:07.249Z,14.00
2018-01-20T16:52:36.807Z,14.63
2018-01-20T16:55:07.603Z,13.63
2018-01-20T16:57:37.078Z,12.63
2018-01-20T17:00:06.764Z,12.33
2018-01-20T17:02:36.334Z,13.93
2018-01-20T17:05:05.839Z,14.30
2018-01-20T17:07:35.509Z,16.73
2018-01-20T17:10:05.332Z,14.97
2018-01-20T17:12:35.444Z,14.63
2018-01-20T17:15:04.349Z,11.43
2018-01-20T17:17:34.778Z,12.43
2018-01-20T17:20:05.467Z,12.37
2018-01-20T17:22:35.445Z,13.70
2018-01-20T17:25:05.115Z,11.73
2018-01-20T17:27:34.610Z,13.97
2018-01-20T17:30:03.895Z,12.53
2018-01-20T17:32:33.806Z,13.83
2018-01-20T17:35:03.311Z,14.40
2018-01-20T17:37:32.881Z,14.77
2018-01-20T17:40:03.981Z,14.80
2018-01-20T17:42:33.774Z,21.13
2018-01-20T17:45:03.308Z,23.27
2018-01-20T17:47:32.804Z,26.43
2018-01-20T17:50:02.121Z,25.80
2018-01-20T17:52:31.605Z,27.37
2018-01-20T17:55:00.921Z,27.17
2018-01-20T17:57:32.354Z,24.27
2018-01-20T18:00:01.697Z,23.90
2018-01-20T18:02:32.609Z,27.53
2018-01-20T18:05:02.120Z,26.70
2018-01-20T18:07:32.618Z,32.53
2018-01-20T18:10:02.116Z,28.47
2018-01-20T18:12:31.620Z,26.53
2018-01-20T18:15:01.329Z,27.00
2018-01-20T18:17:31.640Z,30.27
2018-01-20T18:20:01.529Z,31.67
2018-01-20T18:22:31.030Z,29.03
2018-01-20T18:25:00.546Z,28.57
2018-01-20T18:27:30.049Z,30.57
2018-01-20T18:30:00.327Z,30.17
2018-01-20T18:32:29.831Z,27.73
2018-01-20T18:34:59.382Z,31.30
2018-01-20T18:37:29.405Z,30.20
2018-01-20T18:39:58.988Z,29.47
2018-01-20T18:42:28.587Z,32.83
2018-01-20T18:44:58.249Z,30.03
2018-01-20T18:47:28.109Z,31.57
2018-01-20T18:49:57.606Z,34.27
2018-01-20T18:52:27.122Z,36.37
2018-01-20T18:54:56.678Z,36.20
2018-01-20T18:57:27.109Z,33.00
2018-01-20T18:59:56.649Z,35.10
2018-01-20T19:02:26.146Z,32.17
2018-01-20T19:04:56.145Z,33.03
2018-01-20T19:07:26.276Z,32.87
2018-01-20T19:09:55.766Z,35.20
2018-01-20T19:12:25.308Z,36.67
2018-01-20T19:14:54.829Z,39.13
2018-01-20T19:17:24.726Z,54.27
2018-01-20T19:19:54.236Z,50.17
2018-01-20T19:22:23.793Z,44.57
2018-01-20T19:24:53.327Z,44.27
2018-01-20T19:27:23.621Z,40.23
2018-01-20T19:29:53.125Z,43.30
2018-01-20T19:32:23.120Z,40.73
2018-01-20T19:34:53.406Z,42.27
2018-01-20T19:37:23.132Z,43.60
2018-01-20T19:39:53.447Z,41.10
2018-01-20T19:42:22.946Z,43.13
2018-01-20T19:44:52.474Z,47.57
2018-01-20T19:47:21.980Z,44.17
2018-01-20T19:49:51.488Z,39.93
2018-01-20T19:52:22.670Z,43.87
2018-01-20T19:54:53.221Z,42.03
2018-01-20T19:57:22.763Z,39.50
2018-01-20T19:59:52.322Z,39.73
2018-01-20T20:02:21.817Z,39.13
2018-01-20T20:04:53.177Z,42.93
2018-01-20T20:07:22.655Z,39.33
2018-01-20T20:09:52.189Z,38.80
2018-01-20T20:12:21.690Z,42.67
2018-01-20T20:14:51.189Z,41.97
2018-01-20T20:17:20.693Z,37.23
2018-01-20T20:19:50.457Z,37.77
2018-01-20T20:22:20.280Z,41.47
2018-01-20T20:24:49.808Z,40.00
2018-01-20T20:27:19.507Z,39.27
2018-01-20T20:29:49.822Z,41.67
2018-01-20T20:32:19.601Z,42.20
2018-01-20T20:34:49.177Z,48.70
2018-01-20T20:37:18.365Z,40.77
2018-01-20T20:39:47.965Z,36.97
2018-01-20T20:42:17.321Z,41.70
2018-01-20T20:44:47.436Z,38.80
2018-01-20T20:47:16.924Z,40.60
2018-01-20T20:49:46.416Z,40.13
2018-01-20T20:52:15.732Z,41.20
2018-01-20T20:54:47.057Z,39.13
2018-01-20T20:57:17.025Z,39.37
2018-01-20T20:59:46.566Z,42.57
2018-01-20T21:02:16.400Z,45.40
2018-01-20T21:04:48.294Z,41.30
2018-01-20T21:07:17.789Z,46.03
2018-01-20T21:09:47.405Z,47.83
2018-01-20T21:12:16.953Z,46.27
2018-01-20T21:14:46.428Z,45.17
2018-01-20T21:17:16.766Z,51.30
2018-01-20T21:19:46.319Z,43.40
2018-01-20T21:22:18.220Z,46.73
2018-01-20T21:24:48.062Z,51.47
2018-01-20T21:27:18.060Z,51.83
2018-01-20T21:29:48.504Z,48.73
2018-01-20T21:32:18.062Z,47.40
2018-01-20T21:34:47.600Z,51.70
2018-01-20T21:37:17.543Z,50.70
2018-01-20T21:39:47.091Z,45.73
2018-01-20T21:42:17.893Z,44.10
2018-01-20T21:44:50.291Z,44.83
2018-01-20T21:47:20.296Z,45.33
2018-01-20T21:49:49.793Z,47.80
2018-01-20T21:52:19.411Z,47.13
2018-01-20T21:54:49.700Z,46.10
2018-01-20T21:57:19.324Z,42.80
2018-01-20T21:59:51.735Z,49.83
2018-01-20T22:02:21.533Z,49.93
2018-01-20T22:04:51.408Z,54.63
2018-01-20T22:07:22.078Z,67.17
2018-01-20T22:09:52.489Z,60.60
2018-01-20T22:12:21.990Z,65.03
2018-01-20T22:14:51.525Z,64.40
2018-01-20T22:17:21.193Z,61.47
2018-01-20T22:19:50.714Z,59.27
2018-01-20T22:22:20.237Z,61.87
2018-01-20T22:24:49.738Z,59.57
2018-01-20T22:27:20.139Z,59.70
2018-01-20T22:29:49.681Z,58.40
2018-01-20T22:32:19.351Z,58.27
2018-01-20T22:34:48.939Z,55.27
2018-01-20T22:37:18.529Z,53.57
2018-01-20T22:39:48.076Z,48.73
2018-01-20T22:42:19.470Z,54.30
2018-01-20T22:44:48.976Z,45.90
2018-01-20T22:47:18.517Z,44.20
2018-01-20T22:49:48.824Z,42.37
2018-01-20T22:52:18.306Z,38.07
2018-01-20T22:54:48.712Z,46.53
2018-01-20T22:57:19.339Z,37.03
2018-01-20T22:59:48.937Z,40.57
2018-01-20T23:02:18.439Z,38.53
2018-01-20T23:04:48.067Z,43.13
2018-01-20T23:07:18.314Z,41.23
2018-01-20T23:09:48.127Z,42.23
2018-01-20T23:12:20.133Z,43.13
2018-01-20T23:14:49.589Z,43.70
2018-01-20T23:17:19.070Z,42.57
2018-01-20T23:19:48.795Z,45.90
2018-01-20T23:22:19.186Z,45.47
2018-01-20T23:24:49.183Z,47.57
2018-01-20T23:27:20.799Z,48.87
2018-01-20T23:29:50.698Z,49.30
2018-01-20T23:32:20.180Z,56.83
2018-01-20T23:34:49.964Z,53.60
2018-01-20T23:37:19.560Z,50.33
2018-01-20T23:39:48.872Z,47.87
2018-01-20T23:42:18.372Z,54.20
2018-01-20T23:44:47.924Z,55.13
2018-01-20T23:47:18.585Z,52.93
2018-01-20T23:49:48.116Z,50.57
2018-01-20T23:52:17.665Z,56.67
2018-01-20T23:54:47.169Z,53.17
2018-01-20T23:57:16.655Z,59.30
2018-01-20T23:59:47.609Z,48.67
